Sims, Indiana
Current Conditions -  °F | °C
As of 12:35 AM on Saturday 20 Dec 2014 (Local Time) from KMZZ Reporting Station
Haze Haze  
Wind Chill: 28°   Ceiling: 3000
Heat Index: 28°   Visibility: 4mi
Dew Point: 28°   Wind: 0mph
Humidity: 96%   Direction: NA
Pressure: 30.26"   Gusts: NA
Location:  40.5005°N, 85.8254°W
Report Text: KMZZ 200535Z AUTO 00000KT 4SM BR OVC030 M02/M02 A3026 RMK AO2 T10201025
Loading
Personal Weather Stations






























Interactive Weather Map New forecast layout! Learn more

10-Day Weather Forecast

Advertisements
Track Severe Weather on mobile